sensor_id;sensor_type;location;lat;lon;timestamp;P1;durP1;ratioP1;P2;durP2;ratioP2
11255;SDS011;5685;52.384;13.420;2023-04-15T00:00:30;74.10;;;39.53;;
11255;SDS011;5685;52.384;13.420;2023-04-15T00:03:33;73.57;;;39.27;;
11255;SDS011;5685;52.384;13.420;2023-04-15T00:06:36;73.27;;;39.13;;
11255;SDS011;5685;52.384;13.420;2023-04-15T00:09:39;73.63;;;39.30;;
11255;SDS011;5685;52.384;13.420;2023-04-15T00:12:43;73.13;;;39.00;;
11255;SDS011;5685;52.384;13.420;2023-04-15T00:15:47;73.77;;;39.40;;
11255;SDS011;5685;52.384;13.420;2023-04-15T00:18:50;73.30;;;39.23;;
11255;SDS011;5685;52.384;13.420;2023-04-15T00:21:52;73.77;;;39.40;;
11255;SDS011;5685;52.384;13.420;2023-04-15T00:24:55;73.30;;;39.13;;
11255;SDS011;5685;52.384;13.420;2023-04-15T00:27:58;74.03;;;39.47;;
11255;SDS011;5685;52.384;13.420;2023-04-15T00:31:02;73.07;;;39.03;;
11255;SDS011;5685;52.384;13.420;2023-04-15T00:34:04;73.70;;;39.40;;
11255;SDS011;5685;52.384;13.420;2023-04-15T00:37:07;74.30;;;39.60;;
11255;SDS011;5685;52.384;13.420;2023-04-15T00:40:10;74.00;;;39.40;;
11255;SDS011;5685;52.384;13.420;2023-04-15T00:43:13;74.13;;;39.50;;
11255;SDS011;5685;52.384;13.420;2023-04-15T00:46:18;74.53;;;39.60;;
11255;SDS011;5685;52.384;13.420;2023-04-15T00:49:22;74.37;;;39.40;;
11255;SDS011;5685;52.384;13.420;2023-04-15T00:52:24;74.70;;;39.80;;
11255;SDS011;5685;52.384;13.420;2023-04-15T00:55:27;74.30;;;39.30;;
11255;SDS011;5685;52.384;13.420;2023-04-15T00:58:30;74.03;;;39.23;;
11255;SDS011;5685;52.384;13.420;2023-04-15T01:01:35;74.30;;;39.40;;
11255;SDS011;5685;52.384;13.420;2023-04-15T01:04:38;74.90;;;39.63;;
11255;SDS011;5685;52.384;13.420;2023-04-15T01:07:41;74.20;;;39.37;;
11255;SDS011;5685;52.384;13.420;2023-04-15T01:10:43;74.77;;;39.60;;
11255;SDS011;5685;52.384;13.420;2023-04-15T01:13:46;74.40;;;39.47;;
11255;SDS011;5685;52.384;13.420;2023-04-15T01:16:51;74.27;;;39.33;;
11255;SDS011;5685;52.384;13.420;2023-04-15T01:19:54;74.20;;;39.33;;
11255;SDS011;5685;52.384;13.420;2023-04-15T01:22:57;74.00;;;39.33;;
11255;SDS011;5685;52.384;13.420;2023-04-15T01:26:02;73.67;;;39.20;;
11255;SDS011;5685;52.384;13.420;2023-04-15T01:29:05;74.33;;;39.40;;
11255;SDS011;5685;52.384;13.420;2023-04-15T01:32:07;74.53;;;39.53;;
11255;SDS011;5685;52.384;13.420;2023-04-15T01:35:11;74.10;;;39.50;;
11255;SDS011;5685;52.384;13.420;2023-04-15T01:38:13;74.17;;;39.50;;
11255;SDS011;5685;52.384;13.420;2023-04-15T01:41:17;74.27;;;39.53;;
11255;SDS011;5685;52.384;13.420;2023-04-15T01:44:24;73.80;;;39.30;;
11255;SDS011;5685;52.384;13.420;2023-04-15T01:47:27;74.27;;;39.43;;
11255;SDS011;5685;52.384;13.420;2023-04-15T01:50:29;73.77;;;39.33;;
11255;SDS011;5685;52.384;13.420;2023-04-15T01:53:32;73.97;;;39.57;;
11255;SDS011;5685;52.384;13.420;2023-04-15T01:56:36;73.37;;;39.17;;
11255;SDS011;5685;52.384;13.420;2023-04-15T01:59:39;74.10;;;39.47;;
11255;SDS011;5685;52.384;13.420;2023-04-15T02:02:41;73.93;;;39.37;;
11255;SDS011;5685;52.384;13.420;2023-04-15T02:05:44;74.07;;;39.40;;
11255;SDS011;5685;52.384;13.420;2023-04-15T02:08:47;73.73;;;39.30;;
11255;SDS011;5685;52.384;13.420;2023-04-15T02:11:51;73.70;;;39.30;;
11255;SDS011;5685;52.384;13.420;2023-04-15T02:14:54;74.27;;;39.40;;
11255;SDS011;5685;52.384;13.420;2023-04-15T02:17:56;73.70;;;39.17;;
11255;SDS011;5685;52.384;13.420;2023-04-15T02:21:00;74.07;;;39.40;;
11255;SDS011;5685;52.384;13.420;2023-04-15T02:24:05;74.40;;;39.50;;
11255;SDS011;5685;52.384;13.420;2023-04-15T02:27:09;74.30;;;39.47;;
11255;SDS011;5685;52.384;13.420;2023-04-15T02:30:13;73.97;;;39.33;;
11255;SDS011;5685;52.384;13.420;2023-04-15T02:33:16;74.10;;;39.40;;
11255;SDS011;5685;52.384;13.420;2023-04-15T02:36:19;74.20;;;39.30;;
11255;SDS011;5685;52.384;13.420;2023-04-15T02:39:22;74.70;;;39.50;;
11255;SDS011;5685;52.384;13.420;2023-04-15T02:42:26;74.23;;;39.20;;
11255;SDS011;5685;52.384;13.420;2023-04-15T02:45:30;74.73;;;39.50;;
11255;SDS011;5685;52.384;13.420;2023-04-15T02:48:33;74.67;;;39.47;;
11255;SDS011;5685;52.384;13.420;2023-04-15T02:51:36;73.97;;;39.23;;
11255;SDS011;5685;52.384;13.420;2023-04-15T02:54:38;74.57;;;39.50;;
11255;SDS011;5685;52.384;13.420;2023-04-15T02:57:42;75.20;;;39.60;;
11255;SDS011;5685;52.384;13.420;2023-04-15T03:00:45;74.60;;;39.47;;
11255;SDS011;5685;52.384;13.420;2023-04-15T03:03:50;74.37;;;39.37;;
11255;SDS011;5685;52.384;13.420;2023-04-15T03:06:52;74.70;;;39.40;;
11255;SDS011;5685;52.384;13.420;2023-04-15T03:09:55;74.60;;;39.60;;
11255;SDS011;5685;52.384;13.420;2023-04-15T03:12:59;74.77;;;39.60;;
11255;SDS011;5685;52.384;13.420;2023-04-15T03:16:01;74.20;;;39.43;;
11255;SDS011;5685;52.384;13.420;2023-04-15T03:19:04;73.93;;;39.40;;
11255;SDS011;5685;52.384;13.420;2023-04-15T03:22:07;73.97;;;39.27;;
11255;SDS011;5685;52.384;13.420;2023-04-15T03:25:09;74.10;;;39.40;;
11255;SDS011;5685;52.384;13.420;2023-04-15T03:28:13;74.33;;;39.60;;
11255;SDS011;5685;52.384;13.420;2023-04-15T03:31:16;74.37;;;39.40;;
11255;SDS011;5685;52.384;13.420;2023-04-15T03:34:18;73.73;;;39.23;;
11255;SDS011;5685;52.384;13.420;2023-04-15T03:37:21;73.40;;;39.17;;
11255;SDS011;5685;52.384;13.420;2023-04-15T03:40:24;73.13;;;39.10;;
11255;SDS011;5685;52.384;13.420;2023-04-15T03:43:28;73.63;;;39.33;;
11255;SDS011;5685;52.384;13.420;2023-04-15T03:46:30;74.23;;;39.40;;
11255;SDS011;5685;52.384;13.420;2023-04-15T03:49:33;73.73;;;39.20;;
11255;SDS011;5685;52.384;13.420;2023-04-15T03:52:36;74.50;;;39.50;;
11255;SDS011;5685;52.384;13.420;2023-04-15T03:55:38;74.40;;;39.47;;
11255;SDS011;5685;52.384;13.420;2023-04-15T03:58:42;74.13;;;39.40;;
11255;SDS011;5685;52.384;13.420;2023-04-15T04:01:45;74.17;;;39.40;;
11255;SDS011;5685;52.384;13.420;2023-04-15T04:04:48;74.03;;;39.40;;
11255;SDS011;5685;52.384;13.420;2023-04-15T04:07:51;73.60;;;39.13;;
11255;SDS011;5685;52.384;13.420;2023-04-15T04:10:53;74.33;;;39.50;;
11255;SDS011;5685;52.384;13.420;2023-04-15T04:13:57;74.13;;;39.30;;
11255;SDS011;5685;52.384;13.420;2023-04-15T04:17:00;73.40;;;39.03;;
11255;SDS011;5685;52.384;13.420;2023-04-15T04:20:02;73.80;;;39.27;;
11255;SDS011;5685;52.384;13.420;2023-04-15T04:23:06;73.83;;;39.23;;
11255;SDS011;5685;52.384;13.420;2023-04-15T04:26:08;73.87;;;39.30;;
11255;SDS011;5685;52.384;13.420;2023-04-15T04:29:12;73.23;;;39.00;;
11255;SDS011;5685;52.384;13.420;2023-04-15T04:32:15;72.67;;;38.83;;
11255;SDS011;5685;52.384;13.420;2023-04-15T04:35:18;73.40;;;39.10;;
11255;SDS011;5685;52.384;13.420;2023-04-15T04:38:20;74.20;;;39.47;;
11255;SDS011;5685;52.384;13.420;2023-04-15T04:41:23;73.50;;;39.20;;
11255;SDS011;5685;52.384;13.420;2023-04-15T04:44:27;73.27;;;39.17;;
11255;SDS011;5685;52.384;13.420;2023-04-15T04:47:30;72.63;;;38.90;;
11255;SDS011;5685;52.384;13.420;2023-04-15T04:50:33;72.10;;;38.87;;
11255;SDS011;5685;52.384;13.420;2023-04-15T04:53:35;72.50;;;39.17;;
11255;SDS011;5685;52.384;13.420;2023-04-15T04:56:38;71.83;;;38.97;;
11255;SDS011;5685;52.384;13.420;2023-04-15T04:59:42;71.87;;;38.80;;
11255;SDS011;5685;52.384;13.420;2023-04-15T05:02:44;71.77;;;38.87;;
11255;SDS011;5685;52.384;13.420;2023-04-15T05:05:47;72.33;;;39.00;;
11255;SDS011;5685;52.384;13.420;2023-04-15T05:08:50;72.27;;;39.17;;
11255;SDS011;5685;52.384;13.420;2023-04-15T05:11:52;72.63;;;39.27;;
11255;SDS011;5685;52.384;13.420;2023-04-15T05:14:57;71.97;;;38.90;;
11255;SDS011;5685;52.384;13.420;2023-04-15T05:17:59;71.17;;;38.80;;
11255;SDS011;5685;52.384;13.420;2023-04-15T05:21:02;71.43;;;38.80;;
11255;SDS011;5685;52.384;13.420;2023-04-15T05:24:05;71.50;;;38.90;;
11255;SDS011;5685;52.384;13.420;2023-04-15T05:27:07;71.10;;;38.70;;
11255;SDS011;5685;52.384;13.420;2023-04-15T05:30:12;71.87;;;38.97;;
11255;SDS011;5685;52.384;13.420;2023-04-15T05:33:15;71.57;;;38.83;;
11255;SDS011;5685;52.384;13.420;2023-04-15T05:36:18;71.63;;;38.90;;
11255;SDS011;5685;52.384;13.420;2023-04-15T05:39:20;71.33;;;38.70;;
11255;SDS011;5685;52.384;13.420;2023-04-15T05:42:23;72.10;;;39.07;;
11255;SDS011;5685;52.384;13.420;2023-04-15T05:45:27;71.97;;;39.00;;
11255;SDS011;5685;52.384;13.420;2023-04-15T05:48:29;71.73;;;38.90;;
11255;SDS011;5685;52.384;13.420;2023-04-15T05:51:32;72.47;;;38.97;;
11255;SDS011;5685;52.384;13.420;2023-04-15T05:54:34;72.83;;;39.10;;
11255;SDS011;5685;52.384;13.420;2023-04-15T05:57:37;72.60;;;39.00;;
11255;SDS011;5685;52.384;13.420;2023-04-15T06:00:41;72.53;;;38.90;;
11255;SDS011;5685;52.384;13.420;2023-04-15T06:03:45;73.60;;;39.40;;
11255;SDS011;5685;52.384;13.420;2023-04-15T06:06:47;73.17;;;39.20;;
11255;SDS011;5685;52.384;13.420;2023-04-15T06:09:50;73.57;;;39.30;;
11255;SDS011;5685;52.384;13.420;2023-04-15T06:12:53;73.33;;;39.30;;
11255;SDS011;5685;52.384;13.420;2023-04-15T06:15:57;73.83;;;39.40;;
11255;SDS011;5685;52.384;13.420;2023-04-15T06:18:59;73.83;;;39.23;;
11255;SDS011;5685;52.384;13.420;2023-04-15T06:22:02;74.07;;;39.33;;
11255;SDS011;5685;52.384;13.420;2023-04-15T06:25:06;74.73;;;39.50;;
11255;SDS011;5685;52.384;13.420;2023-04-15T06:28:10;74.47;;;39.40;;
11255;SDS011;5685;52.384;13.420;2023-04-15T06:31:14;73.93;;;39.30;;
11255;SDS011;5685;52.384;13.420;2023-04-15T06:34:16;74.47;;;39.40;;
11255;SDS011;5685;52.384;13.420;2023-04-15T06:37:19;74.80;;;39.60;;
11255;SDS011;5685;52.384;13.420;2023-04-15T06:40:22;74.30;;;39.30;;
11255;SDS011;5685;52.384;13.420;2023-04-15T06:43:24;73.90;;;39.27;;
11255;SDS011;5685;52.384;13.420;2023-04-15T06:46:29;74.90;;;39.73;;
11255;SDS011;5685;52.384;13.420;2023-04-15T06:49:31;74.63;;;39.63;;
11255;SDS011;5685;52.384;13.420;2023-04-15T06:52:34;74.57;;;39.47;;
11255;SDS011;5685;52.384;13.420;2023-04-15T06:55:37;74.20;;;39.50;;
11255;SDS011;5685;52.384;13.420;2023-04-15T06:58:39;74.00;;;39.33;;
11255;SDS011;5685;52.384;13.420;2023-04-15T07:01:43;74.37;;;39.53;;
11255;SDS011;5685;52.384;13.420;2023-04-15T07:04:46;74.17;;;39.37;;
11255;SDS011;5685;52.384;13.420;2023-04-15T07:07:49;74.17;;;39.40;;
11255;SDS011;5685;52.384;13.420;2023-04-15T07:10:52;74.20;;;39.37;;
11255;SDS011;5685;52.384;13.420;2023-04-15T07:13:56;74.20;;;39.43;;
11255;SDS011;5685;52.384;13.420;2023-04-15T07:17:00;74.30;;;39.40;;
11255;SDS011;5685;52.384;13.420;2023-04-15T07:20:03;74.37;;;39.50;;
11255;SDS011;5685;52.384;13.420;2023-04-15T07:23:06;74.73;;;39.70;;
11255;SDS011;5685;52.384;13.420;2023-04-15T07:26:08;74.87;;;39.70;;
11255;SDS011;5685;52.384;13.420;2023-04-15T07:29:11;74.00;;;39.30;;
11255;SDS011;5685;52.384;13.420;2023-04-15T07:32:15;74.40;;;39.47;;
11255;SDS011;5685;52.384;13.420;2023-04-15T07:35:17;74.00;;;39.30;;
11255;SDS011;5685;52.384;13.420;2023-04-15T07:38:21;74.23;;;39.47;;
11255;SDS011;5685;52.384;13.420;2023-04-15T07:41:23;74.50;;;39.40;;
11255;SDS011;5685;52.384;13.420;2023-04-15T07:44:26;74.57;;;39.40;;
11255;SDS011;5685;52.384;13.420;2023-04-15T07:47:30;74.40;;;39.40;;
11255;SDS011;5685;52.384;13.420;2023-04-15T07:50:33;74.40;;;39.40;;
11255;SDS011;5685;52.384;13.420;2023-04-15T07:53:35;74.20;;;39.40;;
11255;SDS011;5685;52.384;13.420;2023-04-15T07:56:38;73.90;;;39.33;;
11255;SDS011;5685;52.384;13.420;2023-04-15T07:59:41;73.70;;;39.13;;
11255;SDS011;5685;52.384;13.420;2023-04-15T08:02:45;73.67;;;39.13;;
11255;SDS011;5685;52.384;13.420;2023-04-15T08:05:48;73.67;;;39.10;;
11255;SDS011;5685;52.384;13.420;2023-04-15T08:08:51;73.53;;;39.00;;
11255;SDS011;5685;52.384;13.420;2023-04-15T08:11:54;73.80;;;39.17;;
11255;SDS011;5685;52.384;13.420;2023-04-15T08:14:57;73.90;;;39.27;;
11255;SDS011;5685;52.384;13.420;2023-04-15T08:18:01;74.00;;;39.30;;
11255;SDS011;5685;52.384;13.420;2023-04-15T08:21:04;73.60;;;39.20;;
11255;SDS011;5685;52.384;13.420;2023-04-15T08:24:06;74.10;;;39.40;;
11255;SDS011;5685;52.384;13.420;2023-04-15T08:27:10;74.20;;;39.47;;
11255;SDS011;5685;52.384;13.420;2023-04-15T08:30:13;73.57;;;39.23;;
11255;SDS011;5685;52.384;13.420;2023-04-15T08:33:17;73.60;;;39.23;;
11255;SDS011;5685;52.384;13.420;2023-04-15T08:36:19;74.07;;;39.37;;
11255;SDS011;5685;52.384;13.420;2023-04-15T08:39:22;73.93;;;39.30;;
11255;SDS011;5685;52.384;13.420;2023-04-15T08:42:26;73.67;;;39.23;;
11255;SDS011;5685;52.384;13.420;2023-04-15T08:45:32;73.80;;;39.17;;
11255;SDS011;5685;52.384;13.420;2023-04-15T08:48:37;73.20;;;39.00;;
11255;SDS011;5685;52.384;13.420;2023-04-15T08:51:40;73.73;;;39.23;;
11255;SDS011;5685;52.384;13.420;2023-04-15T08:54:44;73.93;;;39.43;;
11255;SDS011;5685;52.384;13.420;2023-04-15T08:57:47;74.13;;;39.33;;
11255;SDS011;5685;52.384;13.420;2023-04-15T09:00:50;73.23;;;39.10;;
11255;SDS011;5685;52.384;13.420;2023-04-15T09:03:54;73.87;;;39.40;;
11255;SDS011;5685;52.384;13.420;2023-04-15T09:06:57;73.30;;;39.20;;
11255;SDS011;5685;52.384;13.420;2023-04-15T09:10:00;72.73;;;38.90;;
11255;SDS011;5685;52.384;13.420;2023-04-15T09:13:03;73.27;;;39.10;;
11255;SDS011;5685;52.384;13.420;2023-04-15T09:16:06;72.93;;;39.07;;
11255;SDS011;5685;52.384;13.420;2023-04-15T09:19:21;73.30;;;39.20;;
11255;SDS011;5685;52.384;13.420;2023-04-15T09:22:30;73.40;;;39.20;;
11255;SDS011;5685;52.384;13.420;2023-04-15T09:25:33;74.07;;;39.50;;
11255;SDS011;5685;52.384;13.420;2023-04-15T09:28:40;73.07;;;39.03;;
11255;SDS011;5685;52.384;13.420;2023-04-15T09:31:43;73.07;;;39.20;;
11255;SDS011;5685;52.384;13.420;2023-04-15T09:34:47;73.30;;;39.20;;
11255;SDS011;5685;52.384;13.420;2023-04-15T09:37:49;72.77;;;39.00;;
11255;SDS011;5685;52.384;13.420;2023-04-15T09:40:52;73.03;;;39.20;;
11255;SDS011;5685;52.384;13.420;2023-04-15T09:43:55;72.87;;;39.20;;
11255;SDS011;5685;52.384;13.420;2023-04-15T09:46:58;73.07;;;39.30;;
11255;SDS011;5685;52.384;13.420;2023-04-15T09:50:02;73.07;;;39.20;;
11255;SDS011;5685;52.384;13.420;2023-04-15T09:53:05;73.03;;;39.33;;
11255;SDS011;5685;52.384;13.420;2023-04-15T09:56:11;72.37;;;38.87;;
11255;SDS011;5685;52.384;13.420;2023-04-15T09:59:13;72.67;;;39.10;;
11255;SDS011;5685;52.384;13.420;2023-04-15T10:02:16;73.47;;;39.17;;
11255;SDS011;5685;52.384;13.420;2023-04-15T10:05:22;73.10;;;39.20;;
11255;SDS011;5685;52.384;13.420;2023-04-15T10:08:26;73.30;;;39.20;;
11255;SDS011;5685;52.384;13.420;2023-04-15T10:11:29;72.80;;;39.10;;
11255;SDS011;5685;52.384;13.420;2023-04-15T10:14:33;73.20;;;39.23;;
11255;SDS011;5685;52.384;13.420;2023-04-15T10:17:37;73.20;;;39.17;;
11255;SDS011;5685;52.384;13.420;2023-04-15T10:20:42;73.60;;;39.20;;
11255;SDS011;5685;52.384;13.420;2023-04-15T10:23:45;74.13;;;39.53;;
11255;SDS011;5685;52.384;13.420;2023-04-15T10:26:48;73.63;;;39.37;;
11255;SDS011;5685;52.384;13.420;2023-04-15T10:29:51;73.70;;;39.40;;
11255;SDS011;5685;52.384;13.420;2023-04-15T10:32:54;73.07;;;39.10;;
11255;SDS011;5685;52.384;13.420;2023-04-15T10:35:59;73.20;;;39.30;;
11255;SDS011;5685;52.384;13.420;2023-04-15T10:39:03;73.70;;;39.40;;
11255;SDS011;5685;52.384;13.420;2023-04-15T10:42:38;73.30;;;39.17;;
11255;SDS011;5685;52.384;13.420;2023-04-15T10:45:43;73.70;;;39.30;;
11255;SDS011;5685;52.384;13.420;2023-04-15T10:48:47;74.00;;;39.60;;
11255;SDS011;5685;52.384;13.420;2023-04-15T10:51:56;73.40;;;39.17;;
11255;SDS011;5685;52.384;13.420;2023-04-15T10:55:11;73.43;;;39.30;;
11255;SDS011;5685;52.384;13.420;2023-04-15T10:58:14;73.40;;;39.30;;
11255;SDS011;5685;52.384;13.420;2023-04-15T11:01:18;73.00;;;39.07;;
11255;SDS011;5685;52.384;13.420;2023-04-15T11:07:54;73.00;;;39.03;;
11255;SDS011;5685;52.384;13.420;2023-04-15T11:10:57;73.53;;;39.30;;
11255;SDS011;5685;52.384;13.420;2023-04-15T11:14:01;73.97;;;39.50;;
11255;SDS011;5685;52.384;13.420;2023-04-15T11:17:03;73.37;;;39.20;;
11255;SDS011;5685;52.384;13.420;2023-04-15T11:20:06;73.10;;;39.20;;
11255;SDS011;5685;52.384;13.420;2023-04-15T11:23:11;73.17;;;39.20;;
11255;SDS011;5685;52.384;13.420;2023-04-15T11:26:14;73.17;;;39.20;;
11255;SDS011;5685;52.384;13.420;2023-04-15T11:29:16;73.47;;;39.33;;
11255;SDS011;5685;52.384;13.420;2023-04-15T11:32:19;73.13;;;39.40;;
11255;SDS011;5685;52.384;13.420;2023-04-15T11:35:22;73.33;;;39.40;;
11255;SDS011;5685;52.384;13.420;2023-04-15T11:38:27;73.67;;;39.50;;
11255;SDS011;5685;52.384;13.420;2023-04-15T11:41:30;72.87;;;39.20;;
11255;SDS011;5685;52.384;13.420;2023-04-15T11:44:32;72.90;;;39.27;;
11255;SDS011;5685;52.384;13.420;2023-04-15T11:47:35;72.90;;;39.23;;
11255;SDS011;5685;52.384;13.420;2023-04-15T11:50:38;72.20;;;39.03;;
11255;SDS011;5685;52.384;13.420;2023-04-15T11:53:42;72.63;;;39.20;;
11255;SDS011;5685;52.384;13.420;2023-04-15T11:56:49;73.00;;;39.50;;
11255;SDS011;5685;52.384;13.420;2023-04-15T11:59:53;72.70;;;39.30;;
11255;SDS011;5685;52.384;13.420;2023-04-15T12:03:10;72.70;;;39.27;;
11255;SDS011;5685;52.384;13.420;2023-04-15T12:06:18;72.23;;;39.17;;
11255;SDS011;5685;52.384;13.420;2023-04-15T12:09:22;72.40;;;39.20;;
11255;SDS011;5685;52.384;13.420;2023-04-15T12:12:26;72.17;;;39.07;;
11255;SDS011;5685;52.384;13.420;2023-04-15T12:15:29;72.43;;;39.10;;
11255;SDS011;5685;52.384;13.420;2023-04-15T12:18:32;72.20;;;39.03;;
11255;SDS011;5685;52.384;13.420;2023-04-15T12:21:35;72.17;;;38.97;;
11255;SDS011;5685;52.384;13.420;2023-04-15T12:24:41;72.47;;;39.10;;
11255;SDS011;5685;52.384;13.420;2023-04-15T12:27:49;72.90;;;39.40;;
11255;SDS011;5685;52.384;13.420;2023-04-15T12:30:53;72.43;;;39.20;;
11255;SDS011;5685;52.384;13.420;2023-04-15T12:33:56;72.47;;;39.17;;
11255;SDS011;5685;52.384;13.420;2023-04-15T12:37:00;72.70;;;39.40;;
11255;SDS011;5685;52.384;13.420;2023-04-15T12:40:07;72.20;;;39.00;;
11255;SDS011;5685;52.384;13.420;2023-04-15T12:43:10;72.10;;;39.00;;
11255;SDS011;5685;52.384;13.420;2023-04-15T12:46:12;72.60;;;39.30;;
11255;SDS011;5685;52.384;13.420;2023-04-15T12:49:15;72.30;;;39.10;;
11255;SDS011;5685;52.384;13.420;2023-04-15T12:52:19;72.40;;;39.10;;
11255;SDS011;5685;52.384;13.420;2023-04-15T12:55:25;72.63;;;39.30;;
11255;SDS011;5685;52.384;13.420;2023-04-15T12:58:27;72.40;;;39.20;;
11255;SDS011;5685;52.384;13.420;2023-04-15T13:01:30;71.57;;;38.80;;
11255;SDS011;5685;52.384;13.420;2023-04-15T13:04:33;72.20;;;39.10;;
11255;SDS011;5685;52.384;13.420;2023-04-15T13:07:36;72.43;;;39.20;;
11255;SDS011;5685;52.384;13.420;2023-04-15T13:10:40;71.77;;;39.07;;
11255;SDS011;5685;52.384;13.420;2023-04-15T13:13:43;72.30;;;39.20;;
11255;SDS011;5685;52.384;13.420;2023-04-15T13:16:46;72.43;;;39.20;;
11255;SDS011;5685;52.384;13.420;2023-04-15T13:19:48;72.53;;;39.10;;
11255;SDS011;5685;52.384;13.420;2023-04-15T13:22:51;71.97;;;39.00;;
11255;SDS011;5685;52.384;13.420;2023-04-15T13:25:55;71.63;;;38.80;;
11255;SDS011;5685;52.384;13.420;2023-04-15T13:28:58;72.07;;;39.00;;
11255;SDS011;5685;52.384;13.420;2023-04-15T13:32:01;72.73;;;39.23;;
11255;SDS011;5685;52.384;13.420;2023-04-15T13:35:04;72.17;;;39.10;;
11255;SDS011;5685;52.384;13.420;2023-04-15T13:38:06;72.27;;;39.13;;
11255;SDS011;5685;52.384;13.420;2023-04-15T13:41:11;72.17;;;39.10;;
11255;SDS011;5685;52.384;13.420;2023-04-15T13:44:13;73.07;;;39.57;;
11255;SDS011;5685;52.384;13.420;2023-04-15T13:47:15;72.20;;;39.17;;
11255;SDS011;5685;52.384;13.420;2023-04-15T13:50:18;72.10;;;39.20;;
11255;SDS011;5685;52.384;13.420;2023-04-15T13:53:20;71.73;;;38.97;;
11255;SDS011;5685;52.384;13.420;2023-04-15T13:56:24;72.53;;;39.27;;
11255;SDS011;5685;52.384;13.420;2023-04-15T13:59:26;72.47;;;39.17;;
11255;SDS011;5685;52.384;13.420;2023-04-15T14:02:29;72.33;;;39.20;;
11255;SDS011;5685;52.384;13.420;2023-04-15T14:05:32;72.17;;;39.20;;
11255;SDS011;5685;52.384;13.420;2023-04-15T14:08:35;72.00;;;39.03;;
11255;SDS011;5685;52.384;13.420;2023-04-15T14:11:39;72.87;;;39.50;;
11255;SDS011;5685;52.384;13.420;2023-04-15T14:14:43;72.07;;;39.23;;
11255;SDS011;5685;52.384;13.420;2023-04-15T14:17:46;72.10;;;39.23;;
11255;SDS011;5685;52.384;13.420;2023-04-15T14:20:48;71.70;;;39.07;;
11255;SDS011;5685;52.384;13.420;2023-04-15T14:23:51;71.73;;;39.00;;
11255;SDS011;5685;52.384;13.420;2023-04-15T14:26:55;71.67;;;39.20;;
11255;SDS011;5685;52.384;13.420;2023-04-15T14:29:58;71.90;;;39.33;;
11255;SDS011;5685;52.384;13.420;2023-04-15T14:33:01;71.27;;;39.00;;
11255;SDS011;5685;52.384;13.420;2023-04-15T14:36:04;71.87;;;39.50;;
11255;SDS011;5685;52.384;13.420;2023-04-15T14:39:07;71.30;;;38.93;;
11255;SDS011;5685;52.384;13.420;2023-04-15T14:42:12;71.63;;;39.20;;
11255;SDS011;5685;52.384;13.420;2023-04-15T14:45:14;71.57;;;39.17;;
11255;SDS011;5685;52.384;13.420;2023-04-15T14:48:17;71.43;;;39.10;;
11255;SDS011;5685;52.384;13.420;2023-04-15T14:51:20;70.77;;;38.77;;
11255;SDS011;5685;52.384;13.420;2023-04-15T14:54:23;72.00;;;39.23;;
11255;SDS011;5685;52.384;13.420;2023-04-15T14:57:27;71.30;;;39.00;;
11255;SDS011;5685;52.384;13.420;2023-04-15T15:00:29;71.53;;;39.00;;
11255;SDS011;5685;52.384;13.420;2023-04-15T15:03:32;72.53;;;39.50;;
11255;SDS011;5685;52.384;13.420;2023-04-15T15:06:35;71.90;;;39.10;;
11255;SDS011;5685;52.384;13.420;2023-04-15T15:09:37;71.83;;;39.07;;
11255;SDS011;5685;52.384;13.420;2023-04-15T15:12:42;72.20;;;39.23;;
11255;SDS011;5685;52.384;13.420;2023-04-15T15:15:47;71.50;;;38.83;;
11255;SDS011;5685;52.384;13.420;2023-04-15T15:18:49;72.00;;;39.23;;
11255;SDS011;5685;52.384;13.420;2023-04-15T15:21:52;72.00;;;39.13;;
11255;SDS011;5685;52.384;13.420;2023-04-15T15:24:54;71.97;;;39.20;;
11255;SDS011;5685;52.384;13.420;2023-04-15T15:27:59;71.70;;;38.90;;
11255;SDS011;5685;52.384;13.420;2023-04-15T15:31:02;71.80;;;39.03;;
11255;SDS011;5685;52.384;13.420;2023-04-15T15:34:05;72.20;;;39.20;;
11255;SDS011;5685;52.384;13.420;2023-04-15T15:37:07;72.47;;;39.30;;
11255;SDS011;5685;52.384;13.420;2023-04-15T15:40:10;72.63;;;39.40;;
11255;SDS011;5685;52.384;13.420;2023-04-15T15:43:15;72.27;;;39.10;;
11255;SDS011;5685;52.384;13.420;2023-04-15T15:46:17;72.30;;;39.10;;
11255;SDS011;5685;52.384;13.420;2023-04-15T15:49:20;71.43;;;38.80;;
11255;SDS011;5685;52.384;13.420;2023-04-15T15:52:24;71.70;;;38.90;;
11255;SDS011;5685;52.384;13.420;2023-04-15T15:55:26;71.90;;;38.90;;
11255;SDS011;5685;52.384;13.420;2023-04-15T15:58:31;72.13;;;39.10;;
11255;SDS011;5685;52.384;13.420;2023-04-15T16:01:33;72.13;;;39.20;;
11255;SDS011;5685;52.384;13.420;2023-04-15T16:04:36;72.03;;;39.10;;
11255;SDS011;5685;52.384;13.420;2023-04-15T16:07:39;72.17;;;39.10;;
11255;SDS011;5685;52.384;13.420;2023-04-15T16:10:42;71.90;;;39.03;;
11255;SDS011;5685;52.384;13.420;2023-04-15T16:13:46;72.67;;;39.40;;
11255;SDS011;5685;52.384;13.420;2023-04-15T16:16:48;72.17;;;39.07;;
11255;SDS011;5685;52.384;13.420;2023-04-15T16:19:51;72.67;;;39.27;;
11255;SDS011;5685;52.384;13.420;2023-04-15T16:22:54;72.83;;;39.40;;
11255;SDS011;5685;52.384;13.420;2023-04-15T16:25:57;72.73;;;39.27;;
11255;SDS011;5685;52.384;13.420;2023-04-15T16:29:02;72.37;;;39.20;;
11255;SDS011;5685;52.384;13.420;2023-04-15T16:32:04;72.07;;;39.00;;
11255;SDS011;5685;52.384;13.420;2023-04-15T16:35:07;72.57;;;39.40;;
11255;SDS011;5685;52.384;13.420;2023-04-15T16:38:10;73.17;;;39.53;;
11255;SDS011;5685;52.384;13.420;2023-04-15T16:41:13;73.10;;;39.47;;
11255;SDS011;5685;52.384;13.420;2023-04-15T16:44:17;73.27;;;39.60;;
11255;SDS011;5685;52.384;13.420;2023-04-15T16:47:20;73.10;;;39.43;;
11255;SDS011;5685;52.384;13.420;2023-04-15T16:50:23;72.90;;;39.60;;
11255;SDS011;5685;52.384;13.420;2023-04-15T16:53:25;72.87;;;39.30;;
11255;SDS011;5685;52.384;13.420;2023-04-15T16:56:28;72.97;;;39.40;;
11255;SDS011;5685;52.384;13.420;2023-04-15T16:59:32;73.07;;;39.40;;
11255;SDS011;5685;52.384;13.420;2023-04-15T17:02:35;73.50;;;39.60;;
11255;SDS011;5685;52.384;13.420;2023-04-15T17:05:37;72.83;;;39.23;;
11255;SDS011;5685;52.384;13.420;2023-04-15T17:08:42;73.37;;;39.57;;
11255;SDS011;5685;52.384;13.420;2023-04-15T17:11:44;73.33;;;39.50;;
11255;SDS011;5685;52.384;13.420;2023-04-15T17:14:48;73.27;;;39.53;;
11255;SDS011;5685;52.384;13.420;2023-04-15T17:17:51;72.90;;;39.27;;
11255;SDS011;5685;52.384;13.420;2023-04-15T17:20:54;73.50;;;39.53;;
11255;SDS011;5685;52.384;13.420;2023-04-15T17:23:56;73.53;;;39.43;;
11255;SDS011;5685;52.384;13.420;2023-04-15T17:26:59;73.47;;;39.50;;
11255;SDS011;5685;52.384;13.420;2023-04-15T17:30:03;74.00;;;39.67;;
11255;SDS011;5685;52.384;13.420;2023-04-15T17:33:06;73.53;;;39.47;;
11255;SDS011;5685;52.384;13.420;2023-04-15T17:36:09;74.10;;;39.80;;
11255;SDS011;5685;52.384;13.420;2023-04-15T17:39:12;73.70;;;39.60;;
11255;SDS011;5685;52.384;13.420;2023-04-15T17:42:15;73.87;;;39.67;;
11255;SDS011;5685;52.384;13.420;2023-04-15T17:45:19;73.50;;;39.40;;
11255;SDS011;5685;52.384;13.420;2023-04-15T17:48:22;73.77;;;39.57;;
11255;SDS011;5685;52.384;13.420;2023-04-15T17:51:25;74.20;;;39.60;;
11255;SDS011;5685;52.384;13.420;2023-04-15T17:54:28;74.63;;;39.80;;